Time;durP1;ratioP1;P1;durP2;ratioP2;P2;SDS_P1;SDS_P2;PMS_P1;PMS_P2;Temp;Humidity;BMP_temperature;BMP_pressure;BME280_temperature;BME280_humidity;BME280_pressure;Samples;Min_cycle;Max_cycle;Signal;HPM_P1;HPM_P2
2022/06/12 00:02:06;;;;;;;5.70;2.00;;;13.90;99.90;;;;;;4813787;29;20292;-58
2022/06/12 00:04:34;;;;;;;4.40;2.10;;;13.90;99.90;;;;;;4812038;29;20204;-58
2022/06/12 00:07:03;;;;;;;5.37;2.03;;;13.80;99.90;;;;;;4809722;29;20557;-59
2022/06/12 00:09:31;;;;;;;5.17;2.20;;;13.70;99.90;;;;;;4810157;29;20327;-59
2022/06/12 00:12:00;;;;;;;3.73;1.73;;;13.70;99.90;;;;;;4814587;29;20288;-58
2022/06/12 00:14:28;;;;;;;5.47;2.23;;;13.60;99.90;;;;;;4816788;29;20244;-58
2022/06/12 00:16:58;;;;;;;4.37;2.23;;;13.50;99.90;;;;;;4790619;29;20210;-59
2022/06/12 00:19:27;;;;;;;6.70;2.70;;;13.50;99.90;;;;;;4808961;29;20206;-58
2022/06/12 00:21:57;;;;;;;3.03;1.97;;;13.50;99.90;;;;;;4812692;29;20202;-59
2022/06/12 00:24:26;;;;;;;5.43;2.13;;;13.40;99.90;;;;;;4821134;29;20209;-58
2022/06/12 00:26:57;;;;;;;4.47;2.40;;;13.30;99.90;;;;;;4810853;29;20604;-58
2022/06/12 00:29:28;;;;;;;4.13;2.33;;;13.20;99.90;;;;;;4799119;29;20208;-59
2022/06/12 00:32:06;;;;;;;5.10;2.23;;;13.20;99.90;;;;;;4810948;29;20227;-58
2022/06/12 00:34:38;;;;;;;7.70;2.07;;;13.10;99.90;;;;;;4806846;29;20297;-59
2022/06/12 00:37:07;;;;;;;3.80;1.90;;;13.10;99.90;;;;;;4806716;29;20594;-58
2022/06/12 00:39:36;;;;;;;4.37;2.07;;;13.10;99.90;;;;;;4806312;29;20287;-58
2022/06/12 00:42:06;;;;;;;7.87;2.23;;;13.00;99.90;;;;;;4819086;29;20201;-58
2022/06/12 00:44:40;;;;;;;6.37;2.23;;;13.00;99.90;;;;;;4810751;29;20646;-59
2022/06/12 00:47:14;;;;;;;8.20;2.40;;;12.90;99.90;;;;;;4811286;29;20197;-58
2022/06/12 00:49:46;;;;;;;7.50;2.33;;;12.90;99.90;;;;;;4807662;29;20284;-58
2022/06/12 00:52:34;;;;;;;4.90;2.10;;;12.80;99.90;;;;;;4808747;29;20720;-59
2022/06/12 00:55:13;;;;;;;5.43;2.20;;;12.80;99.90;;;;;;4813544;29;20211;-59
2022/06/12 00:57:42;;;;;;;4.90;2.50;;;12.80;99.90;;;;;;4793620;29;20712;-58
2022/06/12 01:00:13;;;;;;;6.97;2.90;;;12.70;99.90;;;;;;4815436;29;20231;-58
2022/06/12 01:02:45;;;;;;;5.67;2.60;;;12.70;99.90;;;;;;4808235;29;20200;-58
2022/06/12 01:08:08;;;;;;;7.60;2.57;;;12.60;99.90;;;;;;4809268;29;20189;-58
2022/06/12 01:10:41;;;;;;;8.37;2.60;;;12.60;99.90;;;;;;4813731;29;20757;-58
2022/06/12 01:13:14;;;;;;;8.03;2.40;;;12.60;99.90;;;;;;4809527;29;20233;-59
2022/06/12 01:15:46;;;;;;;7.67;2.17;;;12.60;99.90;;;;;;4810240;29;20205;-58
2022/06/12 01:18:20;;;;;;;8.53;2.90;;;12.50;99.90;;;;;;4799330;29;20197;-58
2022/06/12 01:21:11;;;;;;;6.07;2.50;;;12.50;99.90;;;;;;4807616;29;20281;-58
2022/06/12 01:24:09;;;;;;;6.37;2.73;;;12.50;99.90;;;;;;4813848;29;20622;-58
2022/06/12 01:27:00;;;;;;;8.53;2.60;;;12.40;99.90;;;;;;4808324;29;20205;-58
2022/06/12 01:29:34;;;;;;;12.17;2.47;;;12.40;99.90;;;;;;4813933;29;20213;-58
2022/06/12 01:32:09;;;;;;;6.20;2.50;;;12.30;99.90;;;;;;4812628;29;20223;-58
2022/06/12 01:34:48;;;;;;;10.93;2.43;;;12.30;99.90;;;;;;4805810;29;20205;-58
2022/06/12 01:37:29;;;;;;;10.13;2.60;;;12.30;99.90;;;;;;4804970;29;20201;-58
2022/06/12 01:40:08;;;;;;;5.13;2.50;;;12.30;99.90;;;;;;4807858;29;20611;-59
2022/06/12 01:42:41;;;;;;;9.93;2.80;;;12.30;99.90;;;;;;4806733;29;20651;-59
2022/06/12 01:45:21;;;;;;;9.07;2.93;;;12.30;99.90;;;;;;4808396;29;20197;-58
2022/06/12 01:47:57;;;;;;;6.80;2.47;;;12.20;99.90;;;;;;4803970;29;20205;-58
2022/06/12 01:50:34;;;;;;;7.03;2.57;;;12.20;99.90;;;;;;4806517;29;20723;-59
2022/06/12 01:53:09;;;;;;;10.10;2.50;;;12.20;99.90;;;;;;4790711;29;20296;-59
2022/06/12 01:55:46;;;;;;;3.50;2.10;;;12.10;99.90;;;;;;4813825;29;20208;-58
2022/06/12 01:58:18;;;;;;;7.53;2.80;;;12.10;99.90;;;;;;4812756;29;20200;-59
2022/06/12 02:00:52;;;;;;;6.97;2.50;;;12.10;99.90;;;;;;4808613;29;20632;-59
2022/06/12 02:03:29;;;;;;;4.33;2.50;;;12.00;99.90;;;;;;4813190;29;20217;-58
2022/06/12 02:06:03;;;;;;;8.30;2.60;;;12.00;99.90;;;;;;4805987;29;20209;-58
2022/06/12 02:08:37;;;;;;;6.70;2.73;;;12.00;99.90;;;;;;4808864;29;20205;-58
2022/06/12 02:13:58;;;;;;;9.93;2.87;;;11.90;99.90;;;;;;4812164;29;20332;-58
2022/06/12 02:16:31;;;;;;;8.90;2.90;;;11.80;99.90;;;;;;4810572;29;20210;-59
2022/06/12 02:19:06;;;;;;;9.23;3.17;;;11.80;99.90;;;;;;4796954;29;20569;-58
2022/06/12 02:21:41;;;;;;;4.37;2.50;;;11.80;99.90;;;;;;4793439;29;20212;-59
2022/06/12 02:24:14;;;;;;;4.47;2.37;;;11.70;99.90;;;;;;4813871;29;20518;-58
2022/06/12 02:26:47;;;;;;;8.50;2.60;;;11.70;99.90;;;;;;4820634;29;20280;-58
2022/06/12 02:29:20;;;;;;;6.90;2.97;;;11.60;99.90;;;;;;4811006;29;20205;-58
2022/06/12 02:31:55;;;;;;;9.30;2.63;;;11.60;99.90;;;;;;4815772;29;20228;-59
2022/06/12 02:34:33;;;;;;;6.37;2.70;;;11.60;99.90;;;;;;4809738;29;20244;-58
2022/06/12 02:37:08;;;;;;;8.63;3.10;;;11.50;99.90;;;;;;4808343;29;20197;-59
2022/06/12 02:39:41;;;;;;;9.63;2.60;;;11.50;99.90;;;;;;4806348;29;20209;-58
2022/06/12 02:42:16;;;;;;;6.63;2.60;;;11.50;99.90;;;;;;4803015;29;20202;-58
2022/06/12 02:44:54;;;;;;;5.53;2.63;;;11.50;99.90;;;;;;4805512;29;20208;-58
2022/06/12 02:47:29;;;;;;;6.40;2.70;;;11.50;99.90;;;;;;4813788;29;20233;-58
2022/06/12 02:49:59;;;;;;;7.00;2.53;;;11.50;99.90;;;;;;4812632;29;20201;-58
2022/06/12 02:52:35;;;;;;;6.33;2.63;;;11.50;99.90;;;;;;4802900;29;20229;-58
2022/06/12 02:55:11;;;;;;;8.03;3.00;;;11.40;99.90;;;;;;4811827;29;20903;-58
2022/06/12 02:57:48;;;;;;;10.90;2.90;;;11.40;99.90;;;;;;4809332;29;20213;-58
2022/06/12 03:00:22;;;;;;;7.63;2.70;;;11.40;99.90;;;;;;4805535;29;20223;-58
2022/06/12 03:03:01;;;;;;;10.53;3.00;;;11.40;99.90;;;;;;4791680;29;20197;-58
2022/06/12 03:05:33;;;;;;;5.37;2.70;;;11.40;99.90;;;;;;4810498;29;20206;-58
2022/06/12 03:08:06;;;;;;;3.13;2.60;;;11.40;99.90;;;;;;4793200;29;20208;-58
2022/06/12 03:10:38;;;;;;;5.70;2.70;;;11.30;99.90;;;;;;4800822;29;20211;-58
2022/06/12 03:13:12;;;;;;;4.70;2.67;;;11.30;99.90;;;;;;4808831;29;20243;-58
2022/06/12 03:15:44;;;;;;;5.03;3.03;;;11.30;99.90;;;;;;4797353;29;20201;-59
2022/06/12 03:18:19;;;;;;;8.17;2.60;;;11.30;99.90;;;;;;4793948;29;20236;-58
2022/06/12 03:21:02;;;;;;;7.03;2.87;;;11.30;99.90;;;;;;4814465;29;20204;-58
2022/06/12 03:23:49;;;;;;;7.77;3.37;;;11.20;99.90;;;;;;4808157;29;20751;-59
2022/06/12 03:26:27;;;;;;;8.80;3.20;;;11.30;99.90;;;;;;4799113;29;20216;-58
2022/06/12 03:29:05;;;;;;;10.70;3.13;;;11.30;99.90;;;;;;4816678;29;20283;-59
2022/06/12 03:31:40;;;;;;;5.83;3.03;;;11.30;99.90;;;;;;4791250;29;20240;-58
2022/06/12 03:34:17;;;;;;;5.03;3.10;;;11.20;99.90;;;;;;4807831;29;20254;-58
2022/06/12 03:36:53;;;;;;;6.93;2.97;;;11.30;99.90;;;;;;4811753;29;20304;-57
2022/06/12 03:39:27;;;;;;;13.90;2.93;;;11.20;99.90;;;;;;4810432;29;20197;-58
2022/06/12 03:42:04;;;;;;;11.03;3.30;;;11.20;99.90;;;;;;4799468;29;20218;-58
2022/06/12 03:44:41;;;;;;;8.67;3.00;;;11.20;99.90;;;;;;4791510;29;20206;-58
2022/06/12 03:47:17;;;;;;;10.43;3.10;;;11.20;99.90;;;;;;4808628;29;20587;-58
2022/06/12 03:49:51;;;;;;;7.07;3.23;;;11.20;99.90;;;;;;4817577;29;20236;-58
2022/06/12 03:52:25;;;;;;;6.93;2.90;;;11.30;99.90;;;;;;4808514;29;21141;-58
2022/06/12 03:54:59;;;;;;;22.03;3.53;;;11.20;99.90;;;;;;4814336;29;20197;-58
2022/06/12 04:00:24;;;;;;;7.53;3.10;;;11.20;99.90;;;;;;4813641;29;20308;-58
2022/06/12 04:03:25;;;;;;;14.40;3.10;;;11.30;99.90;;;;;;4811690;29;20213;-58
2022/06/12 04:05:58;;;;;;;8.37;3.40;;;11.30;99.90;;;;;;4791991;29;20724;-59
2022/06/12 04:08:35;;;;;;;15.23;3.50;;;11.30;99.90;;;;;;4817887;29;20212;-58
2022/06/12 04:11:04;;;;;;;13.47;3.43;;;11.40;99.90;;;;;;4810816;29;20232;-58
2022/06/12 04:13:32;;;;;;;10.87;3.40;;;11.40;99.90;;;;;;4811403;29;20245;-58
2022/06/12 04:16:05;;;;;;;8.77;3.50;;;11.40;99.90;;;;;;4817437;29;20204;-58
2022/06/12 04:18:34;;;;;;;10.27;3.63;;;11.40;99.90;;;;;;4810661;29;20205;-58
2022/06/12 04:21:26;;;;;;;8.20;3.13;;;11.50;99.90;;;;;;4810029;29;20201;-58
2022/06/12 04:24:05;;;;;;;11.93;3.47;;;11.50;99.90;;;;;;4812030;29;20227;-57
2022/06/12 04:26:38;;;;;;;7.07;3.27;;;11.60;99.90;;;;;;4818242;29;20208;-58
2022/06/12 04:29:23;;;;;;;13.93;3.60;;;11.60;99.90;;;;;;4812474;29;20215;-58
2022/06/12 04:31:56;;;;;;;9.27;3.37;;;11.70;99.90;;;;;;4817188;29;20225;-58
2022/06/12 04:34:27;;;;;;;8.80;3.33;;;11.70;99.90;;;;;;4808015;29;20212;-58
2022/06/12 04:36:59;;;;;;;7.97;4.13;;;11.80;99.90;;;;;;4812709;29;20277;-58
2022/06/12 04:39:31;;;;;;;9.93;3.57;;;11.80;99.90;;;;;;4809299;29;20224;-58
2022/06/12 04:42:01;;;;;;;14.13;3.70;;;11.90;99.90;;;;;;4807992;29;20252;-58
2022/06/12 04:44:30;;;;;;;8.93;3.20;;;11.90;99.90;;;;;;4814516;29;20284;-59
2022/06/12 04:47:01;;;;;;;11.03;4.00;;;12.00;99.90;;;;;;4815598;29;20243;-59
2022/06/12 04:49:33;;;;;;;14.67;4.20;;;12.10;99.90;;;;;;4805409;29;20202;-58
2022/06/12 04:52:06;;;;;;;10.90;3.77;;;12.10;99.90;;;;;;4805714;29;20232;-58
2022/06/12 04:54:35;;;;;;;13.07;3.87;;;12.20;99.90;;;;;;4808083;29;20231;-58
2022/06/12 04:57:06;;;;;;;11.80;4.03;;;12.30;99.90;;;;;;4818730;29;20213;-58
2022/06/12 04:59:35;;;;;;;11.80;3.97;;;12.40;99.90;;;;;;4800339;29;20209;-58
2022/06/12 05:02:05;;;;;;;11.70;4.27;;;12.40;99.90;;;;;;4793859;29;20217;-58
2022/06/12 05:04:35;;;;;;;12.83;3.60;;;12.50;99.90;;;;;;4795430;29;20218;-59
2022/06/12 05:07:07;;;;;;;18.57;4.20;;;12.60;99.90;;;;;;4798526;29;20200;-59
2022/06/12 05:09:39;;;;;;;15.33;4.80;;;12.60;99.90;;;;;;4816009;29;20208;-58
2022/06/12 05:12:10;;;;;;;11.10;4.07;;;12.60;99.90;;;;;;4810645;29;20237;-59
2022/06/12 05:14:38;;;;;;;13.63;3.97;;;12.60;99.90;;;;;;4808849;29;20271;-58
2022/06/12 05:17:11;;;;;;;13.53;4.00;;;12.60;99.90;;;;;;4810725;29;20791;-58
2022/06/12 05:19:42;;;;;;;12.10;4.70;;;12.70;99.90;;;;;;4793346;29;20754;-59
2022/06/12 05:22:13;;;;;;;15.30;3.80;;;12.80;99.90;;;;;;4811874;29;20865;-58
2022/06/12 05:24:42;;;;;;;17.77;4.73;;;12.90;99.90;;;;;;4811097;29;20710;-58
2022/06/12 05:27:17;;;;;;;14.77;4.87;;;12.90;99.90;;;;;;4811312;29;20553;-58
2022/06/12 05:29:46;;;;;;;15.70;5.00;;;13.00;99.90;;;;;;4789942;29;20693;-58
2022/06/12 05:32:17;;;;;;;12.70;4.60;;;13.10;99.90;;;;;;4811394;29;20726;-58
2022/06/12 05:34:46;;;;;;;13.53;4.70;;;13.10;99.90;;;;;;4806717;29;20217;-58
2022/06/12 05:37:17;;;;;;;15.63;4.60;;;13.20;99.90;;;;;;4804955;29;20851;-58
2022/06/12 05:39:45;;;;;;;14.40;4.27;;;13.20;99.90;;;;;;4808296;29;20638;-58
2022/06/12 05:42:14;;;;;;;14.67;4.70;;;13.30;99.90;;;;;;4802725;29;20205;-58
2022/06/12 05:44:42;;;;;;;8.30;3.50;;;13.40;99.90;;;;;;4808342;29;20685;-58
2022/06/12 05:47:11;;;;;;;13.50;3.97;;;13.50;99.90;;;;;;4804841;29;20285;-58
2022/06/12 05:49:39;;;;;;;14.77;4.33;;;13.60;99.90;;;;;;4810845;29;20201;-58
2022/06/12 05:52:08;;;;;;;11.63;4.20;;;13.60;99.90;;;;;;4809870;29;20244;-58
2022/06/12 05:54:38;;;;;;;12.07;4.63;;;13.70;99.90;;;;;;4811483;29;20232;-58
2022/06/12 05:57:07;;;;;;;14.10;4.17;;;13.80;99.90;;;;;;4814520;29;20248;-58
2022/06/12 05:59:36;;;;;;;18.23;5.43;;;14.00;99.90;;;;;;4787963;29;20217;-58
2022/06/12 06:02:06;;;;;;;14.63;4.40;;;14.10;99.90;;;;;;4804329;29;20230;-58
2022/06/12 06:04:35;;;;;;;19.30;5.43;;;14.40;99.90;;;;;;4804293;29;20198;-59
2022/06/12 06:07:04;;;;;;;14.33;4.73;;;14.50;99.90;;;;;;4793135;29;20198;-58
2022/06/12 06:09:32;;;;;;;16.43;5.10;;;14.60;99.90;;;;;;4809456;29;20209;-59
2022/06/12 06:12:02;;;;;;;14.03;4.80;;;14.90;99.90;;;;;;4807389;29;20285;-58
2022/06/12 06:14:30;;;;;;;16.93;4.87;;;14.90;99.90;;;;;;4793697;29;20267;-58
2022/06/12 06:17:06;;;;;;;16.33;4.93;;;15.30;99.90;;;;;;4787808;29;20230;-58
2022/06/12 06:19:34;;;;;;;16.27;4.83;;;15.50;99.90;;;;;;4792842;29;20651;-59
2022/06/12 06:22:03;;;;;;;17.23;5.20;;;15.40;99.90;;;;;;4808523;29;20317;-59
2022/06/12 06:24:32;;;;;;;14.03;5.17;;;15.60;99.90;;;;;;4816767;29;20685;-58
2022/06/12 06:27:04;;;;;;;19.60;5.80;;;15.70;99.90;;;;;;4802913;29;20197;-58
2022/06/12 06:29:32;;;;;;;13.73;5.20;;;15.80;99.90;;;;;;4794003;29;20243;-59
2022/06/12 06:32:00;;;;;;;22.87;5.70;;;15.80;99.90;;;;;;4814581;29;20206;-58
2022/06/12 06:34:29;;;;;;;31.57;6.07;;;15.90;99.90;;;;;;4806841;29;20222;-58
2022/06/12 06:36:58;;;;;;;20.83;6.07;;;15.80;99.90;;;;;;4791629;29;20223;-59
2022/06/12 06:39:26;;;;;;;15.20;5.37;;;15.80;99.90;;;;;;4806718;29;20294;-57
2022/06/12 06:41:55;;;;;;;17.20;5.87;;;16.10;99.90;;;;;;4810456;29;20211;-58
2022/06/12 06:47:11;;;;;;;22.43;6.03;;;16.30;99.90;;;;;;4809686;29;20217;-59
2022/06/12 06:49:39;;;;;;;26.43;6.50;;;16.30;99.90;;;;;;4793672;29;20205;-58
2022/06/12 06:52:08;;;;;;;26.17;6.20;;;16.30;99.90;;;;;;4806747;29;20286;-58
2022/06/12 06:54:37;;;;;;;21.17;6.30;;;16.30;99.90;;;;;;4813946;29;20234;-58
2022/06/12 06:57:07;;;;;;;21.90;6.30;;;16.40;99.90;;;;;;4807038;29;20205;-58
2022/06/12 06:59:37;;;;;;;20.20;5.73;;;16.40;99.90;;;;;;4800166;29;20209;-59
2022/06/12 07:02:07;;;;;;;23.40;5.80;;;16.40;99.90;;;;;;4792065;29;20313;-58
2022/06/12 07:04:36;;;;;;;22.17;5.83;;;16.50;99.90;;;;;;4801803;29;20237;-58
2022/06/12 07:07:05;;;;;;;27.43;6.10;;;16.70;99.90;;;;;;4804120;29;20204;-58
2022/06/12 07:09:33;;;;;;;19.10;5.93;;;16.80;99.90;;;;;;4821392;29;20208;-59
2022/06/12 07:12:02;;;;;;;18.40;5.47;;;17.00;99.90;;;;;;4807194;29;20293;-59
2022/06/12 07:14:30;;;;;;;16.97;5.33;;;17.20;99.90;;;;;;4821697;29;20324;-60
2022/06/12 07:17:01;;;;;;;18.63;5.63;;;17.50;99.90;;;;;;4810800;29;20213;-58
2022/06/12 07:19:29;;;;;;;16.90;5.43;;;17.60;99.90;;;;;;4789714;29;20235;-58
2022/06/12 07:21:58;;;;;;;15.90;5.30;;;17.60;99.90;;;;;;4805404;29;20208;-59
2022/06/12 07:24:28;;;;;;;19.33;5.87;;;17.70;99.90;;;;;;4812080;29;20546;-58
2022/06/12 07:26:56;;;;;;;17.80;5.70;;;17.80;99.90;;;;;;4808952;29;20676;-58
2022/06/12 07:29:25;;;;;;;16.73;5.00;;;17.80;99.90;;;;;;4798695;29;20837;-58
2022/06/12 07:31:54;;;;;;;15.27;4.27;;;18.00;99.90;;;;;;4818269;29;20296;-58
2022/06/12 07:34:23;;;;;;;14.03;4.70;;;18.30;99.90;;;;;;4803002;29;20216;-58
2022/06/12 07:36:54;;;;;;;19.90;5.30;;;18.40;99.90;;;;;;4802164;29;20217;-58
2022/06/12 07:39:27;;;;;;;18.50;5.23;;;18.40;99.90;;;;;;4793232;29;20304;-58
2022/06/12 07:41:56;;;;;;;23.90;5.53;;;18.30;99.90;;;;;;4805914;29;20278;-58
2022/06/12 07:44:28;;;;;;;16.10;4.50;;;18.30;99.90;;;;;;4810152;29;20650;-58
2022/06/12 07:46:58;;;;;;;12.40;3.93;;;18.50;99.90;;;;;;4809746;29;20609;-58
2022/06/12 07:49:30;;;;;;;11.47;4.30;;;18.80;99.90;;;;;;4787874;29;20296;-58
2022/06/12 07:52:01;;;;;;;17.30;4.33;;;18.90;99.90;;;;;;4812368;29;20259;-59
2022/06/12 07:54:31;;;;;;;11.00;4.17;;;19.00;99.90;;;;;;4806345;29;20226;-58
2022/06/12 07:57:01;;;;;;;14.63;4.73;;;19.20;99.90;;;;;;4806794;29;20213;-58
2022/06/12 07:59:29;;;;;;;15.03;4.73;;;19.20;99.90;;;;;;4795469;29;20209;-59
2022/06/12 08:02:02;;;;;;;16.40;5.30;;;19.40;99.90;;;;;;4809440;29;20562;-58
2022/06/12 08:04:33;;;;;;;20.03;4.80;;;19.40;99.90;;;;;;4808524;29;20197;-58
2022/06/12 08:07:02;;;;;;;17.30;4.90;;;19.50;99.90;;;;;;4802506;29;20210;-58
2022/06/12 08:09:30;;;;;;;12.67;4.50;;;19.70;99.90;;;;;;4800996;29;20296;-58
2022/06/12 08:12:00;;;;;;;18.23;4.70;;;19.60;99.90;;;;;;4812627;29;20265;-59
2022/06/12 08:14:30;;;;;;;16.30;5.00;;;19.70;99.90;;;;;;4805333;29;20233;-59
2022/06/12 08:16:59;;;;;;;14.00;4.97;;;19.90;99.90;;;;;;4814763;29;20212;-59
2022/06/12 08:22:16;;;;;;;10.77;4.30;;;19.80;99.90;;;;;;4799757;29;20223;-59
2022/06/12 08:24:46;;;;;;;13.43;4.47;;;19.90;99.90;;;;;;4823871;29;20189;-59
2022/06/12 08:27:14;;;;;;;14.40;4.40;;;19.90;99.90;;;;;;4809479;29;20638;-58
2022/06/12 08:29:44;;;;;;;16.73;3.47;;;20.10;99.90;;;;;;4811514;29;20296;-58
2022/06/12 08:32:19;;;;;;;11.13;3.97;;;20.40;99.90;;;;;;4812746;29;20297;-58
2022/06/12 08:34:52;;;;;;;13.40;3.67;;;20.40;99.90;;;;;;4808859;29;20212;-58
2022/06/12 08:37:25;;;;;;;11.27;3.70;;;20.60;99.90;;;;;;4807017;29;20611;-58
2022/06/12 08:39:54;;;;;;;9.23;3.27;;;20.50;99.90;;;;;;4813527;29;20205;-58
2022/06/12 08:42:30;;;;;;;8.77;2.90;;;20.50;99.90;;;;;;4810485;29;20214;-58
2022/06/12 08:45:05;;;;;;;10.30;3.20;;;20.50;99.90;;;;;;4807009;29;20284;-58
2022/06/12 08:48:00;;;;;;;9.23;3.43;;;20.70;99.90;;;;;;4816225;29;20653;-58
2022/06/12 08:50:35;;;;;;;8.27;3.60;;;21.00;99.90;;;;;;4812694;29;20189;-59
2022/06/12 08:53:16;;;;;;;9.93;3.30;;;21.30;99.90;;;;;;4809226;29;20208;-58
2022/06/12 08:55:49;;;;;;;8.93;3.30;;;21.30;99.90;;;;;;4815787;29;20275;-58
2022/06/12 08:58:24;;;;;;;10.20;3.13;;;21.20;99.90;;;;;;4806363;29;20551;-59
2022/06/12 09:00:55;;;;;;;6.00;3.20;;;21.30;99.90;;;;;;4810213;29;20574;-58
2022/06/12 09:03:28;;;;;;;10.77;3.63;;;21.40;99.90;;;;;;4809116;29;20203;-58
2022/06/12 09:06:08;;;;;;;14.07;3.47;;;21.40;99.90;;;;;;4796018;29;20199;-59
2022/06/12 09:08:47;;;;;;;8.87;3.00;;;21.90;99.90;;;;;;4810880;29;20211;-58
2022/06/12 09:11:20;;;;;;;10.30;3.27;;;22.00;99.90;;;;;;4804834;29;20195;-58
2022/06/12 09:13:56;;;;;;;10.33;3.27;;;22.00;99.90;;;;;;4821729;29;20320;-58
2022/06/12 09:16:33;;;;;;;10.20;2.90;;;21.90;99.90;;;;;;4795194;29;20289;-59
2022/06/12 09:19:11;;;;;;;8.73;3.10;;;22.00;99.90;;;;;;4811110;29;20211;-58
2022/06/12 09:21:50;;;;;;;10.77;3.40;;;21.90;99.90;;;;;;4812444;29;20202;-59
2022/06/12 09:24:32;;;;;;;10.60;3.30;;;22.10;99.90;;;;;;4813772;29;20275;-58
2022/06/12 09:27:06;;;;;;;9.83;3.33;;;22.30;99.90;;;;;;4804863;29;20212;-58
2022/06/12 09:29:45;;;;;;;8.43;3.00;;;22.50;99.90;;;;;;4795349;29;20292;-58
2022/06/12 09:32:24;;;;;;;6.33;2.60;;;22.70;99.90;;;;;;4804708;29;20842;-60
2022/06/12 09:35:04;;;;;;;8.07;2.80;;;22.70;99.90;;;;;;4813055;29;20221;-58
2022/06/12 09:40:37;;;;;;;7.33;3.10;;;22.20;99.90;;;;;;4794223;29;20329;-58
2022/06/12 09:43:28;;;;;;;10.23;3.40;;;22.10;99.90;;;;;;4813397;29;20590;-58
2022/06/12 09:46:03;;;;;;;8.10;3.53;;;22.50;99.90;;;;;;4807046;29;20211;-58
2022/06/12 09:48:46;;;;;;;6.57;3.20;;;23.00;99.90;;;;;;4810003;29;20223;-59
2022/06/12 09:51:28;;;;;;;6.30;2.83;;;23.30;99.90;;;;;;4805057;29;20291;-58
2022/06/12 09:54:20;;;;;;;8.43;2.83;;;23.50;99.90;;;;;;4813032;29;20231;-59
2022/06/12 09:57:00;;;;;;;8.43;2.73;;;23.70;99.90;;;;;;4807030;29;20258;-58
2022/06/12 09:59:34;;;;;;;5.77;2.60;;;23.90;99.90;;;;;;4807433;29;20292;-59
2022/06/12 10:02:12;;;;;;;10.10;2.90;;;23.60;99.90;;;;;;4813593;29;20199;-59
2022/06/12 10:04:49;;;;;;;6.53;2.97;;;23.10;99.90;;;;;;4798130;29;20201;-58
2022/06/12 10:07:24;;;;;;;10.17;3.27;;;22.40;99.90;;;;;;4805410;29;20209;-58
2022/06/12 10:09:58;;;;;;;11.60;3.23;;;22.40;99.90;;;;;;4811385;29;20202;-58
2022/06/12 10:12:36;;;;;;;10.40;3.00;;;22.80;99.90;;;;;;4812914;29;20205;-58
2022/06/12 10:15:12;;;;;;;8.00;3.23;;;23.40;99.90;;;;;;4816203;29;20233;-58
2022/06/12 10:17:46;;;;;;;10.70;3.60;;;23.50;99.90;;;;;;4793207;29;20220;-58
2022/06/12 10:20:25;;;;;;;7.77;3.27;;;23.00;99.90;;;;;;4809439;29;20247;-58
2022/06/12 10:22:55;;;;;;;7.20;3.00;;;23.40;99.90;;;;;;4808042;29;20208;-59
2022/06/12 10:25:27;;;;;;;8.70;3.07;;;23.70;99.90;;;;;;4815011;29;20292;-58
2022/06/12 10:28:01;;;;;;;10.80;3.53;;;23.30;99.90;;;;;;4806501;29;20204;-58
2022/06/12 10:30:39;;;;;;;9.23;3.20;;;22.80;99.90;;;;;;4812024;29;20296;-59
2022/06/12 10:33:21;;;;;;;11.47;3.20;;;22.60;99.90;;;;;;4805533;29;20263;-58
2022/06/12 10:35:53;;;;;;;8.97;2.77;;;23.10;99.90;;;;;;4807436;29;20225;-58
2022/06/12 10:38:23;;;;;;;11.43;2.80;;;23.60;99.90;;;;;;4811049;29;20302;-59
2022/06/12 10:40:54;;;;;;;8.47;3.37;;;24.00;99.90;;;;;;4810413;29;20205;-58
2022/06/12 10:43:35;;;;;;;6.67;3.03;;;24.20;99.90;;;;;;4790328;29;20217;-58
2022/06/12 10:46:08;;;;;;;8.80;3.33;;;24.50;99.90;;;;;;4808485;29;20235;-58
2022/06/12 10:48:37;;;;;;;10.17;3.33;;;24.20;99.90;;;;;;4811525;29;20228;-59
2022/06/12 10:51:22;;;;;;;7.23;3.17;;;23.90;99.90;;;;;;4822149;29;20240;-58
2022/06/12 10:53:58;;;;;;;6.60;2.90;;;23.50;99.90;;;;;;4808833;29;20293;-58
2022/06/12 10:56:33;;;;;;;11.30;3.43;;;22.80;99.90;;;;;;4789338;29;20261;-58
2022/06/12 10:59:34;;;;;;;8.07;3.17;;;22.40;99.90;;;;;;4810647;29;20291;-58
2022/06/12 11:02:31;;;;;;;9.20;3.37;;;22.20;99.90;;;;;;4807049;29;20326;-58
2022/06/12 11:05:13;;;;;;;9.77;3.70;;;22.30;99.90;;;;;;4808353;29;20216;-58
2022/06/12 11:07:52;;;;;;;7.33;3.10;;;23.10;99.90;;;;;;4807287;29;20241;-58
2022/06/12 11:10:38;;;;;;;8.57;3.17;;;23.80;99.90;;;;;;4798898;29;20204;-58
2022/06/12 11:13:23;;;;;;;11.37;3.70;;;24.10;99.90;;;;;;4803746;29;20261;-58
2022/06/12 11:16:09;;;;;;;7.40;3.30;;;23.60;99.90;;;;;;4796656;29;20213;-59
2022/06/12 11:18:56;;;;;;;12.67;5.47;;;23.20;99.90;;;;;;4812144;29;20199;-58
2022/06/12 11:21:46;;;;;;;9.60;3.33;;;23.00;99.90;;;;;;4799133;29;21636;-58
2022/06/12 11:24:19;;;;;;;5.97;2.97;;;22.70;99.90;;;;;;4786774;29;20209;-59
2022/06/12 11:27:02;;;;;;;6.13;3.27;;;23.30;99.90;;;;;;4785923;29;20232;-58
2022/06/12 11:30:04;;;;;;;10.90;3.40;;;23.70;99.90;;;;;;4796054;29;20233;-58
2022/06/12 11:32:48;;;;;;;28.37;3.70;;;23.80;99.90;;;;;;4765409;29;20272;-58
2022/06/12 11:35:29;;;;;;;6.13;2.30;;;24.00;99.90;;;;;;4792560;29;20207;-58
2022/06/12 11:38:21;;;;;;;5.33;2.60;;;24.00;99.90;;;;;;4793302;29;20232;-58
2022/06/12 11:40:58;;;;;;;7.83;2.80;;;24.30;99.90;;;;;;4793466;29;20208;-58
2022/06/12 11:43:33;;;;;;;6.20;2.70;;;23.80;99.90;;;;;;4793798;29;20214;-58
2022/06/12 11:46:27;;;;;;;6.23;2.30;;;23.40;99.90;;;;;;4805695;29;20596;-58
2022/06/12 11:49:26;;;;;;;5.13;2.23;;;23.60;99.90;;;;;;4794371;29;20215;-58
2022/06/12 11:52:11;;;;;;;4.73;2.00;;;24.10;99.90;;;;;;4796281;29;20700;-58
2022/06/12 11:55:04;;;;;;;5.73;2.33;;;24.40;99.90;;;;;;4796870;29;20215;-58
2022/06/12 11:57:42;;;;;;;5.67;2.37;;;24.10;99.90;;;;;;4792149;29;20311;-58
2022/06/12 12:00:15;;;;;;;3.87;2.03;;;23.80;99.90;;;;;;4799059;29;20223;-58
2022/06/12 12:02:53;;;;;;;5.23;2.40;;;23.80;99.90;;;;;;4797300;29;20217;-58
2022/06/12 12:05:40;;;;;;;5.37;2.30;;;23.70;99.90;;;;;;4800605;29;20419;-58
2022/06/12 12:08:20;;;;;;;5.30;2.40;;;23.30;99.90;;;;;;4789046;29;20290;-58
2022/06/12 12:10:54;;;;;;;5.47;2.50;;;23.00;99.90;;;;;;4801418;29;20205;-58
2022/06/12 12:13:28;;;;;;;4.57;2.10;;;23.10;99.90;;;;;;4796850;29;20302;-58
2022/06/12 12:16:01;;;;;;;5.53;2.20;;;23.40;99.90;;;;;;4801348;29;20233;-58
2022/06/12 12:18:39;;;;;;;4.00;2.10;;;23.90;99.90;;;;;;4811582;29;20692;-58
2022/06/12 12:21:14;;;;;;;5.63;2.23;;;24.00;99.90;;;;;;4809757;29;20202;-58
2022/06/12 12:23:47;;;;;;;4.27;2.07;;;23.60;99.90;;;;;;4816116;29;20289;-58
2022/06/12 12:26:23;;;;;;;4.80;2.10;;;23.40;99.90;;;;;;4812853;29;20242;-59
2022/06/12 12:28:54;;;;;;;3.47;2.10;;;23.50;99.90;;;;;;4808439;29;20617;-59
2022/06/12 12:31:24;;;;;;;4.23;2.30;;;23.40;99.90;;;;;;4810089;29;20210;-59
2022/06/12 12:33:54;;;;;;;4.70;2.07;;;23.60;99.90;;;;;;4790610;29;20687;-58
2022/06/12 12:42:33;;;;;;;4.63;2.23;;;23.50;99.90;;;;;;4811146;29;20305;-58
2022/06/12 12:45:15;;;;;;;4.83;2.20;;;23.10;99.90;;;;;;4807508;29;20270;-59
2022/06/12 12:47:44;;;;;;;2.37;1.60;;;23.40;99.90;;;;;;4814771;29;20277;-58
2022/06/12 12:50:15;;;;;;;6.70;2.20;;;23.60;99.90;;;;;;4808784;29;20206;-58
2022/06/12 12:52:53;;;;;;;3.87;2.03;;;23.80;99.90;;;;;;4794525;29;20206;-58
2022/06/12 12:55:27;;;;;;;1.80;1.70;;;23.90;99.90;;;;;;4815753;29;20222;-58
2022/06/12 12:57:59;;;;;;;2.23;1.70;;;24.10;99.90;;;;;;4801665;29;20214;-58
2022/06/12 13:00:33;;;;;;;4.90;1.90;;;24.40;99.90;;;;;;4802956;29;20254;-58
2022/06/12 13:03:11;;;;;;;2.17;1.70;;;24.50;99.90;;;;;;4818157;29;20269;-58
2022/06/12 13:06:08;;;;;;;2.90;1.77;;;24.50;99.90;;;;;;4806456;29;20216;-58
2022/06/12 13:09:00;;;;;;;3.40;2.00;;;24.50;99.90;;;;;;4812893;29;20743;-58
2022/06/12 13:11:41;;;;;;;2.10;1.80;;;24.20;99.90;;;;;;4815172;29;20215;-58
2022/06/12 13:14:24;;;;;;;3.33;1.53;;;23.80;99.90;;;;;;4810322;29;20668;-58
2022/06/12 13:17:15;;;;;;;2.40;1.30;;;23.90;99.90;;;;;;4815393;29;20211;-58
2022/06/12 13:20:10;;;;;;;3.80;1.63;;;24.50;99.90;;;;;;4810169;29;20205;-58
2022/06/12 13:22:51;;;;;;;3.03;1.80;;;24.80;99.90;;;;;;4791244;29;20211;-58
2022/06/12 13:25:25;;;;;;;4.50;1.80;;;25.10;99.90;;;;;;4813670;29;20202;-59
2022/06/12 13:27:56;;;;;;;3.43;1.63;;;24.90;99.90;;;;;;4808977;29;20278;-58
2022/06/12 13:30:28;;;;;;;3.33;1.73;;;24.40;99.90;;;;;;4789147;29;20205;-59
2022/06/12 13:33:07;;;;;;;2.23;1.60;;;24.10;99.90;;;;;;4796573;29;20619;-59
2022/06/12 13:35:43;;;;;;;2.27;1.80;;;24.10;99.90;;;;;;4811847;29;20230;-58
2022/06/12 13:38:21;;;;;;;3.97;1.60;;;24.50;99.90;;;;;;4805741;29;20223;-58
2022/06/12 13:40:59;;;;;;;4.17;1.87;;;24.80;99.90;;;;;;4789762;29;20216;-58
2022/06/12 13:43:36;;;;;;;3.60;1.87;;;25.10;99.90;;;;;;4818671;29;20701;-58
2022/06/12 13:46:24;;;;;;;2.30;1.50;;;25.30;99.90;;;;;;4792447;29;20194;-58